METAR* REPORTS - Stations within 60 miles

(*Meteorological Terminal Aviation Routine weather report)

 

KRDG - Reading, Pennsylvania, USA
Distance from station: SE 19mi, 31km
Updated: Sat, 31-Oct-2020 4:54pm EDT
Overcast
Overcast
 Wind from SW
Wind: SW 6 mph , 9 km/h
Temperature: 45°F , 7°C
Wind Chill: 42°F , 6°C
Dew Point: 30°F , -1°C
Humidity: 57%
Barometer: 30.46 inHg , 1031.5 hPa
Clouds: Overcast
Visibility: 10 miles , 16 km
Cloud details: Overcast 4600 ft
2020/10/31 20:54 KRDG 312054Z 23005KT 10SM OVC046 07/M01 A3046 RMK AO2 SLP322 T00721011 56012
KLNS - Lancaster, Pennsylvania, USA
Distance from station: S 33mi, 53km
Updated: Sat, 31-Oct-2020 5:10pm EDT
Overcast
Overcast
 Wind from E
Wind: E 7 mph , 11 km/h
Temperature: 46°F , 8°C
Wind Chill: 42°F , 6°C
Dew Point: 32°F , 0°C
Humidity: 57%
Barometer: 30.45 inHg , 1031.2 hPa
Clouds: Overcast
Visibility: 10 miles , 16 km
Cloud details: Overcast 4500 ft
2020/10/31 21:10 KLNS 312110Z 10006KT 10SM OVC045 08/00 A3045 RMK AO2 T00780000
 
KSEG - Selinsgrove, Pennsylvania, USA
Distance from station: WNW 39mi, 62km
Updated: Sat, 31-Oct-2020 4:53pm EDT
Few Clouds
Few Clouds
 Wind from SSE
Wind: SSE 6 mph , 9 km/h
Temperature: 45°F , 7°C
Wind Chill: 42°F , 6°C
Dew Point: 30°F , -1°C
Humidity: 57%
Barometer: 30.43 inHg , 1030.5 hPa
Clouds: Few Clouds
Visibility: 10 miles , 16 km
Cloud details: Few Clouds 4600 ft
2020/10/31 20:53 KSEG 312053Z AUTO 16005KT 10SM FEW046 07/M01 A3043 RMK AO2 SLP307 T00671011 58020
KABE - Allentown, Pennsylvania, USA
Distance from station: E 39mi, 63km
Updated: Sat, 31-Oct-2020 4:51pm EDT
Overcast
Overcast
 Wind from calm
Wind: Calm
Temperature: 45°F , 7°C
Dew Point: 28°F , -2°C
Humidity: 53%
Barometer: 30.46 inHg , 1031.5 hPa
Clouds: Overcast
Visibility: 10 miles , 16 km
Cloud details: Overcast 4300 ft
2020/10/31 20:51 KABE 312051Z 00000KT 10SM OVC043 07/M02 A3046 RMK AO2 SLP319 T00671022 56010
 
KMDT - Middletown, Pennsylvania, USA
Distance from station: SW 40mi, 65km
Updated: Sat, 31-Oct-2020 4:56pm EDT
Partly Cloudy
Partly Cloudy
 Wind from ESE
Wind: ESE 12 mph , 19 km/h
Temperature: 46°F , 8°C
Wind Chill: 40°F , 4°C
Dew Point: 32°F , 0°C
Humidity: 57%
Barometer: 30.43 inHg , 1030.5 hPa
Clouds: Partly Cloudy
Visibility: 10 miles , 16 km
Cloud details: Partly Cloudy 4600 ft
2020/10/31 20:56 KMDT 312056Z 12010KT 10SM SCT046 08/00 A3043 RMK AO2 SLP308 T00780000 56019
KPTW - Pottstown, Pennsylvania, USA
Distance from station: SE 42mi, 67km
Updated: Sat, 31-Oct-2020 4:54pm EDT
Partly Cloudy
Partly Cloudy
 Wind from S
Wind: S 3 mph , 6 km/h
Temperature: 45°F , 7°C
Dew Point: 27°F , -3°C
Humidity: 49%
Barometer: 30.49 inHg , 1032.5 hPa
Clouds: Partly Cloudy
Visibility: 10 miles , 16 km
Cloud details: Partly Cloudy 4600 ft
2020/10/31 20:54 KPTW 312054Z AUTO 18003KT 10SM SCT046 07/M03 A3049 RMK AO2 SLP323 T00671028 56012
 
KCXY - Harrisburg, Pennsylvania, USA
Distance from station: SW 43mi, 69km
Updated: Sat, 31-Oct-2020 4:56pm EDT
Overcast
Overcast
 Wind from SSE
Wind: SSE 8 mph , 13 km/h
Temperature: 48°F , 9°C
Wind Chill: 44°F , 7°C
Dew Point: 30°F , -1°C
Humidity: 50%
Barometer: 30.43 inHg , 1030.5 hPa
Clouds: Overcast
Visibility: 10 miles , 16 km
Cloud details: Overcast 5000 ft
2020/10/31 20:56 KCXY 312056Z 16007KT 10SM OVC050 09/M01 A3043 RMK AO2 SLP309 T00891006 56019
KUKT - Quakertown Arp, Pennsylvania, USA
Distance from station: ESE 44mi, 70km
Updated: Sat, 31-Oct-2020 5:15pm EDT
Mostly Cloudy
Mostly Cloudy
 Wind from calm
Wind: Calm
Temperature: 43°F , 6°C
Dew Point: 28°F , -2°C
Humidity: 57%
Barometer: 30.46 inHg , 1031.5 hPa
Clouds: Mostly Cloudy
Visibility: 10 miles , 16 km
Cloud details: Mostly Cloudy 4200 ft
2020/10/31 21:15 KUKT 312115Z AUTO 00000KT 10SM BKN042 06/M02 A3046 RMK A01
 
KMQS - Coatesville, Pennsylvania, USA
Distance from station: SSE 45mi, 72km
Updated: Sat, 31-Oct-2020 5:15pm EDT
Overcast
Overcast
 Wind from varies
Wind: varies 5 mph , 7 km/h
Temperature: 45°F , 7°C
Wind Chill: 42°F , 6°C
Dew Point: 30°F , -1°C
Humidity: 57%
Barometer: 30.46 inHg , 1031.5 hPa
Clouds: Overcast
Visibility: 10 miles , 16 km
Cloud details: Overcast 4200 ft
2020/10/31 21:15 KMQS 312115Z AUTO VRB04KT 10SM OVC042 07/M01 A3046 RMK AO2
KMPO - Mt. Pocono, Pennsylvania, USA
Distance from station: NE 57mi, 92km
Updated: Sat, 31-Oct-2020 4:53pm EDT
Partly Cloudy
Partly Cloudy
 Wind from S
Wind: S 8 mph , 13 km/h
Temperature: 37°F , 3°C
Wind Chill: 31°F , -1°C
Dew Point: 25°F , -4°C
Humidity: 60%
Barometer: 30.39 inHg , 1029.1 hPa
Clouds: Partly Cloudy
Visibility: 10 miles , 16 km
Cloud details: Partly Cloudy 3100 ft
2020/10/31 20:53 KMPO 312053Z AUTO 19007KT 10SM SCT031 03/M04 A3039 RMK AO2 SLP313 T00281039 $
 
KAVP - Avoca/Wilkes B., Pennsylvania, USA
Distance from station: NNE 58mi, 93km
Updated: Sat, 31-Oct-2020 4:54pm EDT
Partly Cloudy
Partly Cloudy
 Wind from SW
Wind: SW 6 mph , 9 km/h
Temperature: 45°F , 7°C
Wind Chill: 42°F , 6°C
Dew Point: 27°F , -3°C
Humidity: 49%
Barometer: 30.40 inHg , 1029.5 hPa
Clouds: Partly Cloudy
Visibility: 10 miles , 16 km
Cloud details: Partly Cloudy 4700 ft
2020/10/31 20:54 KAVP 312054Z 22005KT 10SM SCT047 07/M03 A3040 RMK AO2 SLP300 T00721028 56018
KTHV - York, Pennsylvania, USA
Distance from station: SW 59mi, 94km
Updated: Sat, 31-Oct-2020 4:53pm EDT
Overcast
Overcast
 Wind from SSE
Wind: SSE 7 mph , 11 km/h
Temperature: 46°F , 8°C
Wind Chill: 42°F , 6°C
Dew Point: 32°F , 0°C
Humidity: 57%
Barometer: 30.43 inHg , 1030.5 hPa
Clouds: Overcast
Visibility: 10 miles , 16 km
Cloud details: Mostly Cloudy 4000 ft
Overcast 4700 ft
2020/10/31 20:53 KTHV 312053Z AUTO 15006KT 10SM BKN040 OVC047 08/00 A3043 RMK AO2 SLP311 T00780000 56016
 
KDYL - Doylestown, Pennsylvania, USA
Distance from station: ESE 59mi, 95km
Updated: Sat, 31-Oct-2020 4:54pm EDT
Overcast
Overcast
 Wind from SSW
Wind: SSW 5 mph , 7 km/h
Temperature: 46°F , 8°C
Wind Chill: 44°F , 7°C
Dew Point: 28°F , -2°C
Humidity: 50%
Barometer: 30.46 inHg , 1031.5 hPa
Clouds: Overcast
Visibility: 10 miles , 16 km
Cloud details: Overcast 4500 ft
2020/10/31 20:54 KDYL 312054Z AUTO 20004KT 10SM OVC045 08/M02 A3046 RMK AO2 SLP321 T00781022 56010
KIPT - Williamsport, Pennsylvania, USA
Distance from station: NW 60mi, 96km
Updated: Sat, 31-Oct-2020 4:54pm EDT
Mostly Cloudy
Mostly Cloudy
 Wind from varies
Wind: varies 5 mph , 7 km/h
Temperature: 43°F , 6°C
Wind Chill: 40°F , 4°C
Dew Point: 27°F , -3°C
Humidity: 53%
Barometer: 30.41 inHg , 1029.8 hPa
Clouds: Mostly Cloudy
Visibility: 10 miles , 16 km
Cloud details: Mostly Cloudy 4100 ft
2020/10/31 20:54 KIPT 312054Z VRB04KT 10SM BKN041 06/M03 A3041 RMK AO2 SLP301 T00611033 58014